sensor_id;sensor_type;location;lat;lon;timestamp;P1;durP1;ratioP1;P2;durP2;ratioP2
13457;SDS011;6801;53.018;11.560;2023-06-14T00:02:16;2.85;;;1.20;;
13457;SDS011;6801;53.018;11.560;2023-06-14T00:04:43;3.47;;;1.50;;
13457;SDS011;6801;53.018;11.560;2023-06-14T00:07:10;3.70;;;1.33;;
13457;SDS011;6801;53.018;11.560;2023-06-14T00:09:38;5.97;;;1.90;;
13457;SDS011;6801;53.018;11.560;2023-06-14T00:12:06;5.07;;;1.10;;
13457;SDS011;6801;53.018;11.560;2023-06-14T00:14:36;2.47;;;1.23;;
13457;SDS011;6801;53.018;11.560;2023-06-14T00:17:03;7.28;;;1.92;;
13457;SDS011;6801;53.018;11.560;2023-06-14T00:19:32;3.28;;;1.60;;
13457;SDS011;6801;53.018;11.560;2023-06-14T00:22:01;6.23;;;1.50;;
13457;SDS011;6801;53.018;11.560;2023-06-14T00:24:29;4.50;;;1.55;;
13457;SDS011;6801;53.018;11.560;2023-06-14T00:26:57;3.33;;;1.30;;
13457;SDS011;6801;53.018;11.560;2023-06-14T00:29:25;4.40;;;1.85;;
13457;SDS011;6801;53.018;11.560;2023-06-14T00:31:53;4.60;;;1.70;;
13457;SDS011;6801;53.018;11.560;2023-06-14T00:34:20;5.35;;;1.60;;
13457;SDS011;6801;53.018;11.560;2023-06-14T00:36:48;1.88;;;1.17;;
13457;SDS011;6801;53.018;11.560;2023-06-14T00:39:16;7.22;;;1.70;;
13457;SDS011;6801;53.018;11.560;2023-06-14T00:41:44;3.38;;;1.30;;
13457;SDS011;6801;53.018;11.560;2023-06-14T00:44:10;2.92;;;1.45;;
13457;SDS011;6801;53.018;11.560;2023-06-14T00:46:40;5.70;;;1.17;;
13457;SDS011;6801;53.018;11.560;2023-06-14T00:49:09;3.70;;;1.50;;
13457;SDS011;6801;53.018;11.560;2023-06-14T00:51:38;4.55;;;1.55;;
13457;SDS011;6801;53.018;11.560;2023-06-14T00:54:06;3.17;;;1.40;;
13457;SDS011;6801;53.018;11.560;2023-06-14T00:56:33;4.72;;;1.42;;
13457;SDS011;6801;53.018;11.560;2023-06-14T00:59:01;5.57;;;1.85;;
13457;SDS011;6801;53.018;11.560;2023-06-14T01:01:29;3.17;;;1.60;;
13457;SDS011;6801;53.018;11.560;2023-06-14T01:03:59;2.80;;;1.33;;
13457;SDS011;6801;53.018;11.560;2023-06-14T01:06:30;7.25;;;1.67;;
13457;SDS011;6801;53.018;11.560;2023-06-14T01:09:03;4.28;;;1.60;;
13457;SDS011;6801;53.018;11.560;2023-06-14T01:11:38;4.03;;;1.35;;
13457;SDS011;6801;53.018;11.560;2023-06-14T01:14:12;6.00;;;2.13;;
13457;SDS011;6801;53.018;11.560;2023-06-14T01:16:41;3.28;;;1.60;;
13457;SDS011;6801;53.018;11.560;2023-06-14T01:19:09;5.50;;;1.33;;
13457;SDS011;6801;53.018;11.560;2023-06-14T01:21:40;3.70;;;1.88;;
13457;SDS011;6801;53.018;11.560;2023-06-14T01:24:09;3.67;;;1.48;;
13457;SDS011;6801;53.018;11.560;2023-06-14T01:26:37;2.33;;;1.35;;
13457;SDS011;6801;53.018;11.560;2023-06-14T01:29:10;2.90;;;1.40;;
13457;SDS011;6801;53.018;11.560;2023-06-14T01:31:44;2.20;;;1.42;;
13457;SDS011;6801;53.018;11.560;2023-06-14T01:34:11;2.38;;;1.35;;
13457;SDS011;6801;53.018;11.560;2023-06-14T01:36:39;2.65;;;1.38;;
13457;SDS011;6801;53.018;11.560;2023-06-14T01:39:10;3.95;;;2.00;;
13457;SDS011;6801;53.018;11.560;2023-06-14T01:41:40;5.57;;;1.95;;
13457;SDS011;6801;53.018;11.560;2023-06-14T01:44:07;4.32;;;1.58;;
13457;SDS011;6801;53.018;11.560;2023-06-14T01:46:35;3.10;;;1.30;;
13457;SDS011;6801;53.018;11.560;2023-06-14T01:49:02;5.32;;;1.77;;
13457;SDS011;6801;53.018;11.560;2023-06-14T01:51:30;4.30;;;1.73;;
13457;SDS011;6801;53.018;11.560;2023-06-14T01:53:57;2.00;;;1.40;;
13457;SDS011;6801;53.018;11.560;2023-06-14T01:56:26;3.50;;;1.40;;
13457;SDS011;6801;53.018;11.560;2023-06-14T01:58:53;5.35;;;1.30;;
13457;SDS011;6801;53.018;11.560;2023-06-14T02:01:21;2.38;;;1.30;;
13457;SDS011;6801;53.018;11.560;2023-06-14T02:03:48;2.70;;;1.60;;
13457;SDS011;6801;53.018;11.560;2023-06-14T02:06:16;2.85;;;1.42;;
13457;SDS011;6801;53.018;11.560;2023-06-14T02:08:43;3.38;;;1.77;;
13457;SDS011;6801;53.018;11.560;2023-06-14T02:11:10;3.60;;;1.48;;
13457;SDS011;6801;53.018;11.560;2023-06-14T02:13:38;6.50;;;2.30;;
13457;SDS011;6801;53.018;11.560;2023-06-14T02:16:05;3.83;;;1.88;;
13457;SDS011;6801;53.018;11.560;2023-06-14T02:18:32;1.95;;;1.33;;
13457;SDS011;6801;53.018;11.560;2023-06-14T02:21:00;4.97;;;1.63;;
13457;SDS011;6801;53.018;11.560;2023-06-14T02:23:27;2.25;;;1.25;;
13457;SDS011;6801;53.018;11.560;2023-06-14T02:25:54;3.70;;;1.70;;
13457;SDS011;6801;53.018;11.560;2023-06-14T02:28:21;4.47;;;1.58;;
13457;SDS011;6801;53.018;11.560;2023-06-14T02:30:49;3.00;;;1.73;;
13457;SDS011;6801;53.018;11.560;2023-06-14T02:33:16;5.60;;;1.92;;
13457;SDS011;6801;53.018;11.560;2023-06-14T02:35:43;4.75;;;2.13;;
13457;SDS011;6801;53.018;11.560;2023-06-14T02:38:11;3.97;;;1.90;;
13457;SDS011;6801;53.018;11.560;2023-06-14T02:40:38;5.88;;;1.98;;
13457;SDS011;6801;53.018;11.560;2023-06-14T02:43:07;6.45;;;2.08;;
13457;SDS011;6801;53.018;11.560;2023-06-14T02:45:34;6.55;;;1.80;;
13457;SDS011;6801;53.018;11.560;2023-06-14T02:48:02;21.52;;;3.10;;
13457;SDS011;6801;53.018;11.560;2023-06-14T02:50:30;14.93;;;2.30;;
13457;SDS011;6801;53.018;11.560;2023-06-14T02:52:57;13.38;;;3.22;;
13457;SDS011;6801;53.018;11.560;2023-06-14T02:55:24;32.00;;;3.38;;
13457;SDS011;6801;53.018;11.560;2023-06-14T02:57:53;20.17;;;2.70;;
13457;SDS011;6801;53.018;11.560;2023-06-14T03:00:20;5.90;;;2.35;;
13457;SDS011;6801;53.018;11.560;2023-06-14T03:02:48;16.67;;;2.60;;
13457;SDS011;6801;53.018;11.560;2023-06-14T03:05:18;7.75;;;2.13;;
13457;SDS011;6801;53.018;11.560;2023-06-14T03:10:16;23.65;;;3.10;;
13457;SDS011;6801;53.018;11.560;2023-06-14T03:12:45;5.80;;;1.73;;
13457;SDS011;6801;53.018;11.560;2023-06-14T03:15:13;7.15;;;2.15;;
13457;SDS011;6801;53.018;11.560;2023-06-14T03:17:44;4.05;;;1.70;;
13457;SDS011;6801;53.018;11.560;2023-06-14T03:22:44;8.23;;;1.40;;
13457;SDS011;6801;53.018;11.560;2023-06-14T03:25:13;6.00;;;1.92;;
13457;SDS011;6801;53.018;11.560;2023-06-14T03:27:42;16.30;;;2.60;;
13457;SDS011;6801;53.018;11.560;2023-06-14T03:30:10;4.80;;;2.10;;
13457;SDS011;6801;53.018;11.560;2023-06-14T03:32:37;5.63;;;2.45;;
13457;SDS011;6801;53.018;11.560;2023-06-14T03:35:05;6.32;;;2.45;;
13457;SDS011;6801;53.018;11.560;2023-06-14T03:37:33;61.35;;;4.13;;
13457;SDS011;6801;53.018;11.560;2023-06-14T03:40:01;15.15;;;2.33;;
13457;SDS011;6801;53.018;11.560;2023-06-14T03:42:35;14.05;;;2.65;;
13457;SDS011;6801;53.018;11.560;2023-06-14T03:45:02;15.63;;;2.65;;
13457;SDS011;6801;53.018;11.560;2023-06-14T03:47:30;32.35;;;3.80;;
13457;SDS011;6801;53.018;11.560;2023-06-14T03:49:57;16.90;;;2.47;;
13457;SDS011;6801;53.018;11.560;2023-06-14T03:52:25;5.97;;;2.20;;
13457;SDS011;6801;53.018;11.560;2023-06-14T03:54:52;6.57;;;2.63;;
13457;SDS011;6801;53.018;11.560;2023-06-14T03:57:21;8.65;;;2.47;;
13457;SDS011;6801;53.018;11.560;2023-06-14T03:59:50;4.70;;;2.05;;
13457;SDS011;6801;53.018;11.560;2023-06-14T04:02:17;4.53;;;1.88;;
13457;SDS011;6801;53.018;11.560;2023-06-14T04:04:44;4.25;;;2.53;;
13457;SDS011;6801;53.018;11.560;2023-06-14T04:07:12;4.60;;;1.98;;
13457;SDS011;6801;53.018;11.560;2023-06-14T04:09:39;5.15;;;2.13;;
13457;SDS011;6801;53.018;11.560;2023-06-14T04:12:07;6.68;;;2.47;;
13457;SDS011;6801;53.018;11.560;2023-06-14T04:14:38;4.85;;;1.88;;
13457;SDS011;6801;53.018;11.560;2023-06-14T04:19:35;4.25;;;1.75;;
13457;SDS011;6801;53.018;11.560;2023-06-14T04:22:03;13.38;;;2.92;;
13457;SDS011;6801;53.018;11.560;2023-06-14T04:24:33;5.35;;;2.80;;
13457;SDS011;6801;53.018;11.560;2023-06-14T04:27:01;8.85;;;2.45;;
13457;SDS011;6801;53.018;11.560;2023-06-14T04:29:29;9.00;;;2.78;;
13457;SDS011;6801;53.018;11.560;2023-06-14T04:32:02;5.40;;;2.35;;
13457;SDS011;6801;53.018;11.560;2023-06-14T04:34:31;6.95;;;2.22;;
13457;SDS011;6801;53.018;11.560;2023-06-14T04:37:00;6.47;;;2.55;;
13457;SDS011;6801;53.018;11.560;2023-06-14T04:39:31;6.38;;;1.88;;
13457;SDS011;6801;53.018;11.560;2023-06-14T04:41:59;12.98;;;3.17;;
13457;SDS011;6801;53.018;11.560;2023-06-14T04:44:29;12.00;;;3.33;;
13457;SDS011;6801;53.018;11.560;2023-06-14T04:46:58;51.92;;;4.85;;
13457;SDS011;6801;53.018;11.560;2023-06-14T04:49:26;6.60;;;2.70;;
13457;SDS011;6801;53.018;11.560;2023-06-14T04:51:57;7.38;;;2.97;;
13457;SDS011;6801;53.018;11.560;2023-06-14T04:54:27;9.45;;;2.42;;
13457;SDS011;6801;53.018;11.560;2023-06-14T04:56:56;6.38;;;2.15;;
13457;SDS011;6801;53.018;11.560;2023-06-14T04:59:25;9.35;;;2.00;;
13457;SDS011;6801;53.018;11.560;2023-06-14T05:01:52;10.30;;;2.80;;
13457;SDS011;6801;53.018;11.560;2023-06-14T05:04:22;7.97;;;2.38;;
13457;SDS011;6801;53.018;11.560;2023-06-14T05:06:52;4.38;;;2.55;;
13457;SDS011;6801;53.018;11.560;2023-06-14T05:09:20;5.13;;;3.22;;
13457;SDS011;6801;53.018;11.560;2023-06-14T05:11:49;6.50;;;2.40;;
13457;SDS011;6801;53.018;11.560;2023-06-14T05:14:16;6.20;;;2.33;;
13457;SDS011;6801;53.018;11.560;2023-06-14T05:16:43;6.65;;;3.05;;
13457;SDS011;6801;53.018;11.560;2023-06-14T05:19:11;7.15;;;2.85;;
13457;SDS011;6801;53.018;11.560;2023-06-14T05:21:38;3.90;;;2.67;;
13457;SDS011;6801;53.018;11.560;2023-06-14T05:24:06;9.60;;;2.70;;
13457;SDS011;6801;53.018;11.560;2023-06-14T05:26:34;27.17;;;4.70;;
13457;SDS011;6801;53.018;11.560;2023-06-14T05:29:01;15.77;;;3.38;;
13457;SDS011;6801;53.018;11.560;2023-06-14T05:31:28;5.15;;;2.42;;
13457;SDS011;6801;53.018;11.560;2023-06-14T05:33:56;4.47;;;2.10;;
13457;SDS011;6801;53.018;11.560;2023-06-14T05:36:23;13.95;;;3.40;;
13457;SDS011;6801;53.018;11.560;2023-06-14T05:38:50;11.70;;;3.47;;
13457;SDS011;6801;53.018;11.560;2023-06-14T05:41:24;5.65;;;2.08;;
13457;SDS011;6801;53.018;11.560;2023-06-14T05:43:51;4.88;;;2.53;;
13457;SDS011;6801;53.018;11.560;2023-06-14T05:46:18;5.30;;;2.60;;
13457;SDS011;6801;53.018;11.560;2023-06-14T05:48:47;5.10;;;2.30;;
13457;SDS011;6801;53.018;11.560;2023-06-14T05:51:14;7.93;;;2.40;;
13457;SDS011;6801;53.018;11.560;2023-06-14T05:53:44;5.80;;;2.97;;
13457;SDS011;6801;53.018;11.560;2023-06-14T05:56:11;5.32;;;2.85;;
13457;SDS011;6801;53.018;11.560;2023-06-14T05:58:39;5.18;;;3.03;;
13457;SDS011;6801;53.018;11.560;2023-06-14T06:01:06;3.17;;;2.63;;
13457;SDS011;6801;53.018;11.560;2023-06-14T06:03:34;8.02;;;3.33;;
13457;SDS011;6801;53.018;11.560;2023-06-14T06:06:01;9.00;;;2.88;;
13457;SDS011;6801;53.018;11.560;2023-06-14T06:08:28;9.93;;;3.30;;
13457;SDS011;6801;53.018;11.560;2023-06-14T06:10:56;10.07;;;3.80;;
13457;SDS011;6801;53.018;11.560;2023-06-14T06:13:23;7.60;;;2.65;;
13457;SDS011;6801;53.018;11.560;2023-06-14T06:15:51;7.00;;;3.33;;
13457;SDS011;6801;53.018;11.560;2023-06-14T06:18:18;3.30;;;2.38;;
13457;SDS011;6801;53.018;11.560;2023-06-14T06:20:45;4.25;;;2.90;;
13457;SDS011;6801;53.018;11.560;2023-06-14T06:23:12;5.32;;;2.83;;
13457;SDS011;6801;53.018;11.560;2023-06-14T06:25:39;7.85;;;3.20;;
13457;SDS011;6801;53.018;11.560;2023-06-14T06:28:07;6.43;;;3.35;;
13457;SDS011;6801;53.018;11.560;2023-06-14T06:30:34;6.93;;;3.50;;
13457;SDS011;6801;53.018;11.560;2023-06-14T06:33:03;8.00;;;2.88;;
13457;SDS011;6801;53.018;11.560;2023-06-14T06:35:30;4.85;;;2.90;;
13457;SDS011;6801;53.018;11.560;2023-06-14T06:37:58;8.63;;;3.30;;
13457;SDS011;6801;53.018;11.560;2023-06-14T06:40:26;8.27;;;3.10;;
13457;SDS011;6801;53.018;11.560;2023-06-14T06:42:53;10.20;;;3.40;;
13457;SDS011;6801;53.018;11.560;2023-06-14T06:45:20;5.32;;;2.70;;
13457;SDS011;6801;53.018;11.560;2023-06-14T06:47:48;4.82;;;2.85;;
13457;SDS011;6801;53.018;11.560;2023-06-14T06:50:17;4.93;;;3.30;;
13457;SDS011;6801;53.018;11.560;2023-06-14T06:52:44;4.57;;;2.90;;
13457;SDS011;6801;53.018;11.560;2023-06-14T06:55:11;4.53;;;2.90;;
13457;SDS011;6801;53.018;11.560;2023-06-14T06:57:38;6.55;;;3.30;;
13457;SDS011;6801;53.018;11.560;2023-06-14T07:00:06;5.70;;;2.97;;
13457;SDS011;6801;53.018;11.560;2023-06-14T07:02:35;4.25;;;2.90;;
13457;SDS011;6801;53.018;11.560;2023-06-14T07:05:02;4.03;;;2.70;;
13457;SDS011;6801;53.018;11.560;2023-06-14T07:07:30;3.13;;;2.50;;
13457;SDS011;6801;53.018;11.560;2023-06-14T07:09:57;5.10;;;3.53;;
13457;SDS011;6801;53.018;11.560;2023-06-14T07:12:25;3.92;;;2.67;;
13457;SDS011;6801;53.018;11.560;2023-06-14T07:14:52;5.45;;;3.30;;
13457;SDS011;6801;53.018;11.560;2023-06-14T07:17:19;6.80;;;3.35;;
13457;SDS011;6801;53.018;11.560;2023-06-14T07:19:46;5.28;;;2.67;;
13457;SDS011;6801;53.018;11.560;2023-06-14T07:22:14;4.50;;;2.40;;
13457;SDS011;6801;53.018;11.560;2023-06-14T07:24:43;6.50;;;2.90;;
13457;SDS011;6801;53.018;11.560;2023-06-14T07:27:10;5.15;;;3.10;;
13457;SDS011;6801;53.018;11.560;2023-06-14T07:29:38;4.43;;;2.70;;
13457;SDS011;6801;53.018;11.560;2023-06-14T07:32:06;4.00;;;2.35;;
13457;SDS011;6801;53.018;11.560;2023-06-14T07:34:33;5.93;;;2.92;;
13457;SDS011;6801;53.018;11.560;2023-06-14T07:37:00;3.10;;;2.20;;
13457;SDS011;6801;53.018;11.560;2023-06-14T07:39:27;11.50;;;3.00;;
13457;SDS011;6801;53.018;11.560;2023-06-14T07:41:55;4.85;;;3.00;;
13457;SDS011;6801;53.018;11.560;2023-06-14T07:44:22;7.43;;;2.90;;
13457;SDS011;6801;53.018;11.560;2023-06-14T07:46:49;5.35;;;2.80;;
13457;SDS011;6801;53.018;11.560;2023-06-14T07:49:17;6.50;;;2.63;;
13457;SDS011;6801;53.018;11.560;2023-06-14T07:51:44;3.65;;;2.28;;
13457;SDS011;6801;53.018;11.560;2023-06-14T07:54:11;2.85;;;1.95;;
13457;SDS011;6801;53.018;11.560;2023-06-14T07:56:39;9.45;;;2.28;;
13457;SDS011;6801;53.018;11.560;2023-06-14T07:59:07;4.97;;;2.60;;
13457;SDS011;6801;53.018;11.560;2023-06-14T08:01:34;4.90;;;2.20;;
13457;SDS011;6801;53.018;11.560;2023-06-14T08:04:01;4.88;;;2.70;;
13457;SDS011;6801;53.018;11.560;2023-06-14T08:06:28;3.85;;;2.10;;
13457;SDS011;6801;53.018;11.560;2023-06-14T08:08:55;7.65;;;2.72;;
13457;SDS011;6801;53.018;11.560;2023-06-14T08:11:22;10.88;;;2.63;;
13457;SDS011;6801;53.018;11.560;2023-06-14T08:13:50;20.60;;;2.50;;
13457;SDS011;6801;53.018;11.560;2023-06-14T08:16:18;6.15;;;2.22;;
13457;SDS011;6801;53.018;11.560;2023-06-14T08:18:45;4.45;;;2.15;;
13457;SDS011;6801;53.018;11.560;2023-06-14T08:21:12;5.80;;;2.28;;
13457;SDS011;6801;53.018;11.560;2023-06-14T08:23:39;5.68;;;2.22;;
13457;SDS011;6801;53.018;11.560;2023-06-14T08:26:08;5.63;;;2.53;;
13457;SDS011;6801;53.018;11.560;2023-06-14T08:28:36;5.00;;;2.13;;
13457;SDS011;6801;53.018;11.560;2023-06-14T08:31:02;4.55;;;2.15;;
13457;SDS011;6801;53.018;11.560;2023-06-14T08:33:31;4.93;;;2.80;;
13457;SDS011;6801;53.018;11.560;2023-06-14T08:35:59;3.45;;;1.80;;
13457;SDS011;6801;53.018;11.560;2023-06-14T08:38:26;7.53;;;2.30;;
13457;SDS011;6801;53.018;11.560;2023-06-14T08:40:53;6.88;;;2.00;;
13457;SDS011;6801;53.018;11.560;2023-06-14T08:43:24;5.20;;;2.30;;
13457;SDS011;6801;53.018;11.560;2023-06-14T08:45:52;8.20;;;2.30;;
13457;SDS011;6801;53.018;11.560;2023-06-14T08:48:25;3.22;;;1.92;;
13457;SDS011;6801;53.018;11.560;2023-06-14T08:50:55;5.00;;;2.28;;
13457;SDS011;6801;53.018;11.560;2023-06-14T08:53:27;4.28;;;2.22;;
13457;SDS011;6801;53.018;11.560;2023-06-14T08:58:25;6.55;;;2.15;;
13457;SDS011;6801;53.018;11.560;2023-06-14T09:00:54;6.10;;;2.50;;
13457;SDS011;6801;53.018;11.560;2023-06-14T09:03:22;5.82;;;2.53;;
13457;SDS011;6801;53.018;11.560;2023-06-14T09:05:56;6.50;;;2.38;;
13457;SDS011;6801;53.018;11.560;2023-06-14T09:08:26;5.10;;;2.30;;
13457;SDS011;6801;53.018;11.560;2023-06-14T09:10:55;8.38;;;2.30;;
13457;SDS011;6801;53.018;11.560;2023-06-14T09:13:23;4.68;;;2.28;;
13457;SDS011;6801;53.018;11.560;2023-06-14T09:15:50;6.30;;;2.13;;
13457;SDS011;6801;53.018;11.560;2023-06-14T09:18:17;5.45;;;2.00;;
13457;SDS011;6801;53.018;11.560;2023-06-14T09:20:45;3.03;;;2.10;;
13457;SDS011;6801;53.018;11.560;2023-06-14T09:23:15;9.98;;;2.15;;
13457;SDS011;6801;53.018;11.560;2023-06-14T09:25:47;6.47;;;2.38;;
13457;SDS011;6801;53.018;11.560;2023-06-14T09:28:14;7.63;;;2.20;;
13457;SDS011;6801;53.018;11.560;2023-06-14T09:30:41;8.20;;;2.53;;
13457;SDS011;6801;53.018;11.560;2023-06-14T09:33:08;5.65;;;1.98;;
13457;SDS011;6801;53.018;11.560;2023-06-14T09:35:35;5.47;;;2.00;;
13457;SDS011;6801;53.018;11.560;2023-06-14T09:38:02;5.53;;;2.42;;
13457;SDS011;6801;53.018;11.560;2023-06-14T09:40:34;5.80;;;2.17;;
13457;SDS011;6801;53.018;11.560;2023-06-14T09:43:03;5.70;;;1.92;;
13457;SDS011;6801;53.018;11.560;2023-06-14T09:45:33;7.78;;;2.33;;
13457;SDS011;6801;53.018;11.560;2023-06-14T09:48:00;2.95;;;1.50;;
13457;SDS011;6801;53.018;11.560;2023-06-14T09:50:28;4.95;;;1.88;;
13457;SDS011;6801;53.018;11.560;2023-06-14T09:52:55;5.68;;;2.05;;
13457;SDS011;6801;53.018;11.560;2023-06-14T09:55:27;4.53;;;2.00;;
13457;SDS011;6801;53.018;11.560;2023-06-14T09:57:58;7.00;;;2.67;;
13457;SDS011;6801;53.018;11.560;2023-06-14T10:05:26;6.82;;;2.60;;
13457;SDS011;6801;53.018;11.560;2023-06-14T10:07:55;3.72;;;2.13;;
13457;SDS011;6801;53.018;11.560;2023-06-14T10:10:26;5.05;;;2.10;;
13457;SDS011;6801;53.018;11.560;2023-06-14T10:12:53;4.57;;;1.70;;
13457;SDS011;6801;53.018;11.560;2023-06-14T10:15:23;5.88;;;1.98;;
13457;SDS011;6801;53.018;11.560;2023-06-14T10:17:59;6.07;;;1.70;;
13457;SDS011;6801;53.018;11.560;2023-06-14T10:20:35;10.13;;;1.90;;
13457;SDS011;6801;53.018;11.560;2023-06-14T10:23:06;7.82;;;1.92;;
13457;SDS011;6801;53.018;11.560;2023-06-14T10:25:38;12.40;;;2.40;;
13457;SDS011;6801;53.018;11.560;2023-06-14T10:28:15;8.10;;;2.00;;
13457;SDS011;6801;53.018;11.560;2023-06-14T10:31:04;4.72;;;2.00;;
13457;SDS011;6801;53.018;11.560;2023-06-14T10:33:32;3.83;;;1.95;;
13457;SDS011;6801;53.018;11.560;2023-06-14T10:36:09;8.73;;;2.00;;
13457;SDS011;6801;53.018;11.560;2023-06-14T10:38:56;9.68;;;2.78;;
13457;SDS011;6801;53.018;11.560;2023-06-14T10:41:25;12.43;;;2.55;;
13457;SDS011;6801;53.018;11.560;2023-06-14T10:46:55;5.00;;;1.63;;
13457;SDS011;6801;53.018;11.560;2023-06-14T10:49:36;7.68;;;2.13;;
13457;SDS011;6801;53.018;11.560;2023-06-14T10:52:10;4.82;;;1.63;;
13457;SDS011;6801;53.018;11.560;2023-06-14T10:57:29;3.85;;;2.08;;
13457;SDS011;6801;53.018;11.560;2023-06-14T10:59:57;5.95;;;1.77;;
13457;SDS011;6801;53.018;11.560;2023-06-14T11:02:39;9.15;;;2.30;;
13457;SDS011;6801;53.018;11.560;2023-06-14T11:05:23;9.23;;;2.10;;
13457;SDS011;6801;53.018;11.560;2023-06-14T11:07:55;3.95;;;1.75;;
13457;SDS011;6801;53.018;11.560;2023-06-14T11:10:37;6.10;;;1.77;;
13457;SDS011;6801;53.018;11.560;2023-06-14T11:13:05;3.95;;;2.00;;
13457;SDS011;6801;53.018;11.560;2023-06-14T11:15:33;3.55;;;1.70;;
13457;SDS011;6801;53.018;11.560;2023-06-14T11:18:02;3.67;;;2.05;;
13457;SDS011;6801;53.018;11.560;2023-06-14T11:20:31;5.95;;;1.90;;
13457;SDS011;6801;53.018;11.560;2023-06-14T11:22:59;6.55;;;2.10;;
13457;SDS011;6801;53.018;11.560;2023-06-14T11:25:27;3.58;;;1.70;;
13457;SDS011;6801;53.018;11.560;2023-06-14T11:27:54;6.18;;;1.80;;
13457;SDS011;6801;53.018;11.560;2023-06-14T11:30:22;6.15;;;1.88;;
13457;SDS011;6801;53.018;11.560;2023-06-14T11:32:51;5.63;;;2.05;;
13457;SDS011;6801;53.018;11.560;2023-06-14T11:35:21;8.00;;;2.10;;
13457;SDS011;6801;53.018;11.560;2023-06-14T11:40:19;5.07;;;1.30;;
13457;SDS011;6801;53.018;11.560;2023-06-14T11:42:46;6.78;;;1.92;;
13457;SDS011;6801;53.018;11.560;2023-06-14T11:45:13;5.13;;;1.80;;
13457;SDS011;6801;53.018;11.560;2023-06-14T11:47:40;4.03;;;1.80;;
13457;SDS011;6801;53.018;11.560;2023-06-14T11:50:07;4.40;;;1.50;;
13457;SDS011;6801;53.018;11.560;2023-06-14T11:52:37;6.72;;;1.80;;
13457;SDS011;6801;53.018;11.560;2023-06-14T11:55:05;7.67;;;1.63;;
13457;SDS011;6801;53.018;11.560;2023-06-14T11:57:33;3.10;;;1.73;;
13457;SDS011;6801;53.018;11.560;2023-06-14T12:00:02;10.65;;;2.20;;
13457;SDS011;6801;53.018;11.560;2023-06-14T12:02:36;5.70;;;1.60;;
13457;SDS011;6801;53.018;11.560;2023-06-14T12:05:05;4.72;;;1.90;;
13457;SDS011;6801;53.018;11.560;2023-06-14T12:07:36;6.53;;;2.65;;
13457;SDS011;6801;53.018;11.560;2023-06-14T12:10:05;6.53;;;2.10;;
13457;SDS011;6801;53.018;11.560;2023-06-14T12:12:34;4.47;;;1.80;;
13457;SDS011;6801;53.018;11.560;2023-06-14T12:15:03;4.20;;;2.10;;
13457;SDS011;6801;53.018;11.560;2023-06-14T12:17:32;14.65;;;1.60;;
13457;SDS011;6801;53.018;11.560;2023-06-14T12:20:04;5.95;;;1.83;;
13457;SDS011;6801;53.018;11.560;2023-06-14T12:22:37;4.35;;;1.75;;
13457;SDS011;6801;53.018;11.560;2023-06-14T12:25:04;9.30;;;2.08;;
13457;SDS011;6801;53.018;11.560;2023-06-14T12:27:31;11.25;;;2.33;;
13457;SDS011;6801;53.018;11.560;2023-06-14T12:29:58;5.15;;;2.20;;
13457;SDS011;6801;53.018;11.560;2023-06-14T12:32:26;8.80;;;2.20;;
13457;SDS011;6801;53.018;11.560;2023-06-14T12:34:53;9.82;;;2.58;;
13457;SDS011;6801;53.018;11.560;2023-06-14T12:37:20;7.15;;;2.08;;
13457;SDS011;6801;53.018;11.560;2023-06-14T12:39:49;6.75;;;1.75;;
13457;SDS011;6801;53.018;11.560;2023-06-14T12:42:16;4.57;;;2.07;;
13457;SDS011;6801;53.018;11.560;2023-06-14T12:44:43;4.93;;;1.60;;
13457;SDS011;6801;53.018;11.560;2023-06-14T12:47:10;6.07;;;1.95;;
13457;SDS011;6801;53.018;11.560;2023-06-14T12:49:38;2.08;;;1.58;;
13457;SDS011;6801;53.018;11.560;2023-06-14T12:52:07;18.08;;;2.67;;
13457;SDS011;6801;53.018;11.560;2023-06-14T12:54:35;5.88;;;1.73;;
13457;SDS011;6801;53.018;11.560;2023-06-14T12:57:03;10.80;;;2.13;;
13457;SDS011;6801;53.018;11.560;2023-06-14T12:59:30;4.45;;;1.88;;
13457;SDS011;6801;53.018;11.560;2023-06-14T13:01:59;13.40;;;1.77;;
13457;SDS011;6801;53.018;11.560;2023-06-14T13:04:37;3.97;;;1.92;;
13457;SDS011;6801;53.018;11.560;2023-06-14T13:07:05;28.08;;;3.30;;
13457;SDS011;6801;53.018;11.560;2023-06-14T13:09:32;5.20;;;1.75;;
13457;SDS011;6801;53.018;11.560;2023-06-14T13:12:00;5.55;;;1.55;;
13457;SDS011;6801;53.018;11.560;2023-06-14T13:14:29;9.18;;;2.00;;
13457;SDS011;6801;53.018;11.560;2023-06-14T13:19:24;3.90;;;2.05;;
13457;SDS011;6801;53.018;11.560;2023-06-14T13:21:51;4.68;;;1.70;;
13457;SDS011;6801;53.018;11.560;2023-06-14T13:24:18;2.83;;;1.80;;
13457;SDS011;6801;53.018;11.560;2023-06-14T13:26:45;7.80;;;1.77;;
13457;SDS011;6801;53.018;11.560;2023-06-14T13:29:12;12.05;;;2.85;;
13457;SDS011;6801;53.018;11.560;2023-06-14T13:31:41;3.90;;;1.90;;
13457;SDS011;6801;53.018;11.560;2023-06-14T13:34:08;3.88;;;1.70;;
13457;SDS011;6801;53.018;11.560;2023-06-14T13:36:35;3.47;;;1.60;;
13457;SDS011;6801;53.018;11.560;2023-06-14T13:39:01;3.03;;;1.73;;
13457;SDS011;6801;53.018;11.560;2023-06-14T13:41:29;9.15;;;1.75;;
13457;SDS011;6801;53.018;11.560;2023-06-14T13:43:58;5.10;;;1.75;;
13457;SDS011;6801;53.018;11.560;2023-06-14T13:46:26;6.22;;;2.22;;
13457;SDS011;6801;53.018;11.560;2023-06-14T13:48:54;7.25;;;1.48;;
13457;SDS011;6801;53.018;11.560;2023-06-14T13:51:22;2.13;;;1.60;;
13457;SDS011;6801;53.018;11.560;2023-06-14T13:53:49;13.32;;;2.10;;
13457;SDS011;6801;53.018;11.560;2023-06-14T13:56:17;4.18;;;1.67;;
13457;SDS011;6801;53.018;11.560;2023-06-14T13:58:44;13.40;;;2.53;;
13457;SDS011;6801;53.018;11.560;2023-06-14T14:01:11;6.68;;;1.83;;
13457;SDS011;6801;53.018;11.560;2023-06-14T14:03:38;3.90;;;1.50;;
13457;SDS011;6801;53.018;11.560;2023-06-14T14:06:07;3.55;;;1.88;;
13457;SDS011;6801;53.018;11.560;2023-06-14T14:08:34;4.13;;;1.70;;
13457;SDS011;6801;53.018;11.560;2023-06-14T14:11:02;3.90;;;1.88;;
13457;SDS011;6801;53.018;11.560;2023-06-14T14:13:29;7.85;;;1.75;;
13457;SDS011;6801;53.018;11.560;2023-06-14T14:15:55;7.43;;;2.10;;
13457;SDS011;6801;53.018;11.560;2023-06-14T14:18:23;4.78;;;1.98;;
13457;SDS011;6801;53.018;11.560;2023-06-14T14:20:50;7.97;;;1.65;;
13457;SDS011;6801;53.018;11.560;2023-06-14T14:23:18;13.10;;;2.58;;
13457;SDS011;6801;53.018;11.560;2023-06-14T14:25:46;6.15;;;1.67;;
13457;SDS011;6801;53.018;11.560;2023-06-14T14:28:13;3.40;;;1.67;;
13457;SDS011;6801;53.018;11.560;2023-06-14T14:30:41;5.40;;;2.10;;
13457;SDS011;6801;53.018;11.560;2023-06-14T14:33:08;3.58;;;1.52;;
13457;SDS011;6801;53.018;11.560;2023-06-14T14:35:40;6.22;;;1.67;;
13457;SDS011;6801;53.018;11.560;2023-06-14T14:38:09;10.75;;;1.80;;
13457;SDS011;6801;53.018;11.560;2023-06-14T14:40:38;5.47;;;1.88;;
13457;SDS011;6801;53.018;11.560;2023-06-14T14:43:05;6.80;;;1.52;;
13457;SDS011;6801;53.018;11.560;2023-06-14T14:45:32;5.72;;;2.85;;
13457;SDS011;6801;53.018;11.560;2023-06-14T14:48:00;9.50;;;1.92;;
13457;SDS011;6801;53.018;11.560;2023-06-14T14:50:27;7.00;;;2.28;;
13457;SDS011;6801;53.018;11.560;2023-06-14T14:52:55;4.43;;;1.90;;
13457;SDS011;6801;53.018;11.560;2023-06-14T14:55:22;4.57;;;1.80;;
13457;SDS011;6801;53.018;11.560;2023-06-14T14:57:51;4.35;;;1.60;;
13457;SDS011;6801;53.018;11.560;2023-06-14T15:00:18;4.18;;;1.60;;
13457;SDS011;6801;53.018;11.560;2023-06-14T15:02:45;7.65;;;2.00;;
13457;SDS011;6801;53.018;11.560;2023-06-14T15:05:12;7.15;;;1.75;;
13457;SDS011;6801;53.018;11.560;2023-06-14T15:07:39;4.68;;;1.52;;
13457;SDS011;6801;53.018;11.560;2023-06-14T15:10:07;5.85;;;2.10;;
13457;SDS011;6801;53.018;11.560;2023-06-14T15:12:34;5.13;;;1.70;;
13457;SDS011;6801;53.018;11.560;2023-06-14T15:15:03;2.95;;;1.60;;
13457;SDS011;6801;53.018;11.560;2023-06-14T15:17:31;2.33;;;1.70;;
13457;SDS011;6801;53.018;11.560;2023-06-14T15:19:58;3.50;;;1.60;;